Time;durP1;ratioP1;P1;durP2;ratioP2;P2;SDS_P1;SDS_P2;PMS_P1;PMS_P2;Temp;Humidity;BMP_temperature;BMP_pressure;BME280_temperature;BME280_humidity;BME280_pressure;Samples;Min_cycle;Max_cycle;Signal;HPM_P1;HPM_P2
2023/03/02 00:02:03;;;;;;;0.50;0.50;;;;;;;-2.49;92.94;101390.31;4955558;28;20178;-81
2023/03/02 00:04:45;;;;;;;0.30;0.30;;;;;;;-2.43;92.49;101396.75;4955360;28;20174;-76
2023/03/02 00:07:16;;;;;;;0.83;0.83;;;;;;;-2.36;92.20;101402.91;4955319;28;20410;-77
2023/03/02 00:09:43;;;;;;;0.00;0.00;;;;;;;-2.29;92.41;101405.63;4955646;28;20461;-75
2023/03/02 00:12:09;;;;;;;0.07;0.07;;;;;;;-2.21;92.18;101405.41;4955261;28;20437;-78
2023/03/02 00:14:36;;;;;;;0.33;0.33;;;;;;;-2.12;92.18;101404.22;4955178;28;20422;-74
2023/03/02 00:17:02;;;;;;;0.00;0.00;;;;;;;-2.05;91.90;101401.53;4955094;28;20517;-76
2023/03/02 00:19:28;;;;;;;0.00;0.00;;;;;;;-2.21;91.36;101390.19;4955319;28;20438;-76
2023/03/02 00:21:53;;;;;;;0.00;0.00;;;;;;;-2.16;91.39;101398.44;4955096;28;20179;-77
2023/03/02 00:24:18;;;;;;;0.00;0.00;;;;;;;-2.03;91.83;101405.63;4955421;29;20185;-79
2023/03/02 00:26:44;;;;;;;0.37;0.37;;;;;;;-2.00;91.47;101409.78;4955174;28;20183;-78
2023/03/02 00:29:09;;;;;;;1.10;1.10;;;;;;;-2.25;90.65;101402.31;4954973;28;20254;-75
2023/03/02 00:31:36;;;;;;;0.00;0.00;;;;;;;-2.41;90.14;101414.22;4955112;28;20203;-75
2023/03/02 00:34:02;;;;;;;0.73;0.73;;;;;;;-2.54;90.40;101406.16;4954785;28;20186;-74
2023/03/02 00:36:27;;;;;;;0.40;0.40;;;;;;;-2.71;89.92;101402.22;4954614;28;20844;-77
2023/03/02 00:38:53;;;;;;;1.60;1.23;;;;;;;-2.83;90.67;101401.13;4954777;28;20189;-77
2023/03/02 00:41:22;;;;;;;0.57;0.57;;;;;;;-2.90;90.76;101397.59;4954839;28;20590;-72
2023/03/02 00:43:48;;;;;;;0.30;0.30;;;;;;;-2.88;91.30;101409.75;4954750;28;20714;-76
2023/03/02 00:46:16;;;;;;;0.00;0.00;;;;;;;-2.87;91.80;101415.94;4952763;28;20518;-76
2023/03/02 00:48:41;;;;;;;1.47;1.37;;;;;;;-2.88;92.18;101415.09;4953121;29;20206;-77
2023/03/02 00:51:08;;;;;;;0.73;0.73;;;;;;;-3.02;92.16;101406.19;4955006;28;20461;-75
2023/03/02 00:53:34;;;;;;;0.00;0.00;;;;;;;-3.03;92.48;101411.75;4954387;28;20198;-74
2023/03/02 00:56:01;;;;;;;0.00;0.00;;;;;;;-2.97;92.87;101413.59;4954414;28;20795;-73
2023/03/02 00:58:27;;;;;;;0.70;0.70;;;;;;;-2.94;93.04;101410.53;4954673;28;20524;-76
2023/03/02 01:00:52;;;;;;;0.10;0.10;;;;;;;-2.95;93.52;101400.88;4954480;28;20906;-76
2023/03/02 01:03:18;;;;;;;1.30;1.20;;;;;;;-2.93;93.48;101411.34;4954304;28;20551;-76
2023/03/02 01:05:44;;;;;;;0.17;0.17;;;;;;;-2.87;93.20;101408.72;4954691;28;20238;-77
2023/03/02 01:08:09;;;;;;;0.00;0.00;;;;;;;-2.86;93.32;101401.53;4954153;28;20206;-73
2023/03/02 01:10:35;;;;;;;0.23;0.23;;;;;;;-2.94;93.18;101402.50;4954379;28;20179;-79
2023/03/02 01:13:00;;;;;;;0.63;0.63;;;;;;;-2.91;93.47;101401.28;4954241;28;20182;-79
2023/03/02 01:15:25;;;;;;;1.30;1.30;;;;;;;-2.93;93.81;101400.66;4954127;28;20178;-75
2023/03/02 01:17:51;;;;;;;1.80;1.63;;;;;;;-3.02;93.87;101408.88;4954163;28;20230;-78
2023/03/02 01:20:16;;;;;;;0.53;0.53;;;;;;;-3.14;93.56;101402.44;4954116;28;20583;-75
2023/03/02 01:22:43;;;;;;;0.33;0.33;;;;;;;-3.15;93.49;101399.97;4953943;29;20185;-76
2023/03/02 01:25:09;;;;;;;0.00;0.00;;;;;;;-3.18;94.15;101397.66;4953966;28;20181;-77
2023/03/02 01:27:34;;;;;;;0.03;0.03;;;;;;;-3.10;94.31;101390.31;4953660;28;20426;-75
2023/03/02 01:30:00;;;;;;;0.60;0.60;;;;;;;-3.18;94.40;101390.50;4953875;28;20548;-73
2023/03/02 01:32:25;;;;;;;0.33;0.33;;;;;;;-3.24;94.53;101390.44;4954076;28;20183;-77
2023/03/02 01:34:50;;;;;;;0.67;0.67;;;;;;;-3.25;94.74;101392.28;4953725;28;20201;-73
2023/03/02 01:37:16;;;;;;;0.50;0.50;;;;;;;-3.35;94.70;101383.78;4953626;28;20262;-77
2023/03/02 01:39:41;;;;;;;0.53;0.53;;;;;;;-3.44;94.92;101380.47;4954196;28;20298;-77
2023/03/02 01:42:06;;;;;;;0.70;0.70;;;;;;;-3.45;94.93;101378.00;4953594;28;20524;-72
2023/03/02 01:44:43;;;;;;;0.53;0.53;;;;;;;-3.42;95.76;101372.25;4953670;28;20255;-75
2023/03/02 01:47:18;;;;;;;1.20;1.20;;;;;;;-3.39;95.84;101377.19;4953404;28;20216;-77
2023/03/02 01:49:49;;;;;;;4.37;2.53;;;;;;;-3.43;96.30;101374.09;4953472;28;20525;-75
2023/03/02 01:52:15;;;;;;;0.60;0.60;;;;;;;-3.45;96.27;101372.66;4953546;28;20772;-75
2023/03/02 01:54:42;;;;;;;0.20;0.20;;;;;;;-3.32;96.25;101368.22;4953455;28;20419;-73
2023/03/02 01:57:08;;;;;;;1.30;1.30;;;;;;;-3.30;96.29;101362.69;4952477;28;20697;-75
2023/03/02 01:59:37;;;;;;;2.20;1.37;;;;;;;-3.39;96.93;101361.19;4953392;28;20505;-74
2023/03/02 02:02:06;;;;;;;0.97;0.97;;;;;;;-3.47;96.79;101366.66;4953338;28;20415;-72
2023/03/02 02:04:36;;;;;;;1.87;1.77;;;;;;;-3.56;96.87;101359.84;4953284;28;20973;-78
2023/03/02 02:07:04;;;;;;;0.67;0.67;;;;;;;-3.63;97.11;101359.78;4951790;28;20430;-74
2023/03/02 02:09:35;;;;;;;0.53;0.53;;;;;;;-3.73;97.54;101357.47;4952039;29;20528;-76
2023/03/02 02:12:00;;;;;;;0.77;0.77;;;;;;;-3.70;97.53;101354.41;4953114;28;20919;-76
2023/03/02 02:14:26;;;;;;;0.07;0.07;;;;;;;-3.68;98.47;101355.03;4953274;28;20509;-75
2023/03/02 02:16:51;;;;;;;1.40;1.30;;;;;;;-3.61;98.57;101355.09;4952845;28;20562;-75
2023/03/02 02:19:35;;;;;;;0.60;0.43;;;;;;;-3.55;98.55;101353.47;4953123;28;20296;-74
2023/03/02 02:22:01;;;;;;;1.17;1.07;;;;;;;-3.57;99.27;101342.19;4953085;28;20178;-76
2023/03/02 02:24:48;;;;;;;1.43;1.33;;;;;;;-3.62;99.29;101342.75;4953428;28;20428;-76
2023/03/02 02:27:14;;;;;;;0.67;0.67;;;;;;;-3.67;99.29;101348.69;4952800;28;20694;-75
2023/03/02 02:29:47;;;;;;;0.03;0.03;;;;;;;-3.56;99.65;101343.81;4953184;28;20480;-73
2023/03/02 02:32:16;;;;;;;1.13;1.13;;;;;;;-3.62;99.70;101340.94;4952970;28;20618;-72
2023/03/02 02:34:55;;;;;;;0.10;0.10;;;;;;;-3.67;99.79;101347.84;4952874;28;20986;-74
2023/03/02 02:37:22;;;;;;;0.03;0.03;;;;;;;-3.61;100.00;101345.25;4952721;28;20426;-77
2023/03/02 02:39:50;;;;;;;2.17;2.07;;;;;;;-3.58;100.00;101344.03;4952780;28;20799;-73
2023/03/02 02:42:22;;;;;;;0.93;0.93;;;;;;;-3.72;99.80;101340.44;4952762;28;20949;-77
2023/03/02 02:44:48;;;;;;;1.73;1.63;;;;;;;-3.71;100.00;101341.25;4952709;28;20469;-77
2023/03/02 02:47:17;;;;;;;0.20;0.20;;;;;;;-3.79;100.00;101336.06;4952672;28;20678;-77
2023/03/02 02:49:43;;;;;;;0.50;0.50;;;;;;;-3.74;100.00;101336.31;4952562;28;20667;-74
2023/03/02 02:52:13;;;;;;;0.87;0.63;;;;;;;-3.76;100.00;101343.69;4951271;29;20438;-76
2023/03/02 02:54:39;;;;;;;0.10;0.10;;;;;;;-3.91;100.00;101333.09;4952732;28;20447;-76
2023/03/02 02:57:04;;;;;;;0.00;0.00;;;;;;;-3.86;100.00;101341.38;4952378;28;20419;-74
2023/03/02 02:59:40;;;;;;;0.00;0.00;;;;;;;-3.78;100.00;101348.38;4951253;28;20178;-74
2023/03/02 03:02:05;;;;;;;0.27;0.27;;;;;;;-3.70;100.00;101343.75;4952583;28;20174;-78
2023/03/02 03:04:31;;;;;;;1.20;1.20;;;;;;;-3.78;100.00;101351.06;4952342;28;20418;-75
2023/03/02 03:07:02;;;;;;;0.37;0.37;;;;;;;-3.82;100.00;101347.97;4952019;28;20183;-74
2023/03/02 03:09:28;;;;;;;0.00;0.00;;;;;;;-3.68;100.00;101346.22;4952141;28;20476;-77
2023/03/02 03:12:03;;;;;;;1.10;1.10;;;;;;;-3.57;100.00;101343.00;4950937;28;20430;-75
2023/03/02 03:14:38;;;;;;;0.73;0.73;;;;;;;-3.56;100.00;101344.66;4951208;28;20182;-77
2023/03/02 03:17:10;;;;;;;2.37;2.27;;;;;;;-3.49;100.00;101342.00;4952218;28;20478;-77
2023/03/02 03:19:36;;;;;;;0.13;0.13;;;;;;;-3.55;99.91;101334.78;4952412;28;21137;-78
2023/03/02 03:22:02;;;;;;;0.20;0.20;;;;;;;-3.69;99.57;101326.69;4952125;28;20422;-77
2023/03/02 03:24:29;;;;;;;0.20;0.20;;;;;;;-3.73;99.34;101328.13;4952253;28;20862;-75
2023/03/02 03:26:55;;;;;;;0.13;0.13;;;;;;;-3.66;99.73;101333.47;4952190;28;20527;-75
2023/03/02 03:29:25;;;;;;;0.00;0.00;;;;;;;-3.61;99.58;101329.22;4952238;28;20462;-76
2023/03/02 03:31:52;;;;;;;0.00;0.00;;;;;;;-3.53;99.88;101336.25;4952304;28;20197;-76
2023/03/02 03:34:17;;;;;;;0.83;0.83;;;;;;;-3.49;100.00;101328.66;4952157;28;20429;-75
2023/03/02 03:36:42;;;;;;;0.27;0.27;;;;;;;-3.53;100.00;101325.56;4952147;28;20910;-72
2023/03/02 03:39:08;;;;;;;0.53;0.53;;;;;;;-3.52;99.88;101321.84;4952395;28;20769;-73
2023/03/02 03:41:34;;;;;;;0.53;0.53;;;;;;;-3.57;99.55;101318.97;4953780;28;20265;-72
2023/03/02 03:43:59;;;;;;;1.53;1.53;;;;;;;-3.62;99.69;101318.72;4953289;28;20261;-72
2023/03/02 03:46:25;;;;;;;0.00;0.00;;;;;;;-3.63;100.00;101322.41;4952222;28;20181;-72
2023/03/02 03:48:50;;;;;;;5.93;0.60;;;;;;;-3.46;100.00;101323.75;4952038;28;20234;-72
2023/03/02 03:51:16;;;;;;;0.00;0.00;;;;;;;-3.41;100.00;101320.50;4952738;28;20193;-74
2023/03/02 03:53:42;;;;;;;0.53;0.53;;;;;;;-3.32;100.00;101324.66;4953942;28;20171;-73
2023/03/02 03:56:07;;;;;;;3.90;3.60;;;;;;;-3.27;100.00;101324.03;4952978;28;20598;-76
2023/03/02 03:58:33;;;;;;;0.00;0.00;;;;;;;-3.31;100.00;101331.66;4952323;28;20187;-76
2023/03/02 04:00:58;;;;;;;2.57;2.57;;;;;;;-3.23;100.00;101333.31;4952116;28;20175;-76
2023/03/02 04:03:24;;;;;;;1.13;1.13;;;;;;;-3.18;100.00;101333.53;4952330;28;20580;-74
2023/03/02 04:05:50;;;;;;;0.00;0.00;;;;;;;-3.21;100.00;101336.59;4950583;28;20270;-73
2023/03/02 04:08:15;;;;;;;0.00;0.00;;;;;;;-3.17;100.00;101341.38;4951950;28;20241;-76
2023/03/02 04:10:41;;;;;;;0.10;0.10;;;;;;;-3.16;100.00;101335.00;4952211;28;20422;-72
2023/03/02 04:13:07;;;;;;;0.00;0.00;;;;;;;-3.15;100.00;101336.66;4952159;28;20597;-73
2023/03/02 04:15:33;;;;;;;0.40;0.40;;;;;;;-3.34;100.00;101345.38;4952137;28;20198;-74
2023/03/02 04:17:58;;;;;;;0.00;0.00;;;;;;;-3.47;100.00;101337.28;4952089;28;20956;-73
2023/03/02 04:20:25;;;;;;;0.00;0.00;;;;;;;-3.57;100.00;101332.31;4953621;28;20307;-71
2023/03/02 04:22:52;;;;;;;0.00;0.00;;;;;;;-3.34;100.00;101343.53;4955833;28;20179;-73
2023/03/02 04:25:21;;;;;;;0.00;0.00;;;;;;;-3.20;100.00;101343.59;4955509;28;20509;-73
2023/03/02 04:27:48;;;;;;;0.00;0.00;;;;;;;-3.17;100.00;101341.38;4955240;28;20415;-72
2023/03/02 04:30:15;;;;;;;0.00;0.00;;;;;;;-3.18;100.00;101334.38;4955421;28;20414;-73
2023/03/02 04:32:42;;;;;;;8.20;7.83;;;;;;;-3.26;100.00;101339.88;4955245;28;20434;-72
2023/03/02 04:35:09;;;;;;;0.00;0.00;;;;;;;-3.15;100.00;101335.81;4955086;28;20911;-73
2023/03/02 04:37:38;;;;;;;2.33;1.87;;;;;;;-3.71;100.00;101334.09;4955034;28;20925;-72
2023/03/02 04:40:05;;;;;;;2.67;2.47;;;;;;;-3.91;100.00;101336.63;4953949;28;20484;-72
2023/03/02 04:42:30;;;;;;;1.30;1.30;;;;;;;-4.03;100.00;101335.50;4954929;28;20418;-72
2023/03/02 04:44:55;;;;;;;0.10;0.10;;;;;;;-4.09;100.00;101333.59;4955166;28;20416;-72
2023/03/02 04:47:21;;;;;;;0.97;0.97;;;;;;;-4.11;100.00;101326.81;4953713;28;20183;-72
2023/03/02 04:49:48;;;;;;;1.77;1.73;;;;;;;-4.13;100.00;101331.50;4954947;28;20217;-72
2023/03/02 04:52:13;;;;;;;0.10;0.10;;;;;;;-4.11;100.00;101324.94;4955012;28;20175;-72
2023/03/02 04:54:38;;;;;;;0.00;0.00;;;;;;;-4.05;100.00;101313.53;4954993;28;20419;-72
2023/03/02 04:57:04;;;;;;;0.00;0.00;;;;;;;-4.00;100.00;101311.09;4954759;28;20631;-72
2023/03/02 04:59:29;;;;;;;0.00;0.00;;;;;;;-3.97;100.00;101297.34;4954925;28;20178;-73
2023/03/02 05:01:58;;;;;;;0.17;0.17;;;;;;;-3.94;100.00;101304.13;4954734;28;20656;-73
2023/03/02 05:04:24;;;;;;;0.00;0.00;;;;;;;-3.92;100.00;101302.91;4954663;28;20184;-73
2023/03/02 05:06:49;;;;;;;0.20;0.20;;;;;;;-3.85;100.00;101302.97;4954594;28;20669;-72
2023/03/02 05:09:14;;;;;;;1.73;1.70;;;;;;;-3.80;100.00;101289.03;4954619;28;20561;-73
2023/03/02 05:11:40;;;;;;;0.10;0.10;;;;;;;-3.72;100.00;101292.38;4954830;28;20664;-72
2023/03/02 05:14:08;;;;;;;0.87;0.83;;;;;;;-3.66;100.00;101280.09;4954820;28;20178;-72
2023/03/02 05:16:36;;;;;;;0.67;0.67;;;;;;;-3.56;100.00;101285.91;4954483;28;20225;-72
2023/03/02 05:19:04;;;;;;;1.07;1.07;;;;;;;-3.43;100.00;101288.63;4954357;28;20465;-73
2023/03/02 05:21:29;;;;;;;0.10;0.10;;;;;;;-3.35;100.00;101274.28;4954354;28;20433;-73
2023/03/02 05:23:55;;;;;;;7.13;1.80;;;;;;;-3.40;100.00;101277.53;4954421;28;20439;-72
2023/03/02 05:26:20;;;;;;;0.47;0.47;;;;;;;-3.36;100.00;101269.94;4954096;28;20261;-72
2023/03/02 05:28:46;;;;;;;2.60;2.40;;;;;;;-3.32;100.00;101264.03;4953877;28;20224;-73
2023/03/02 05:31:19;;;;;;;4.43;2.23;;;;;;;-3.29;100.00;101262.81;4954146;28;20182;-72
2023/03/02 05:33:45;;;;;;;0.00;0.00;;;;;;;-3.21;100.00;101267.13;4954187;28;20302;-73
2023/03/02 05:36:11;;;;;;;0.00;0.00;;;;;;;-3.15;100.00;101269.84;4953880;28;20470;-72
2023/03/02 05:38:36;;;;;;;1.23;1.23;;;;;;;-3.11;100.00;101263.06;4953973;28;20485;-72
2023/03/02 05:41:02;;;;;;;4.83;4.40;;;;;;;-3.04;100.00;101271.09;4953887;28;20537;-74
2023/03/02 05:43:28;;;;;;;6.53;1.40;;;;;;;-3.02;100.00;101253.84;4953802;28;20190;-72
2023/03/02 05:45:59;;;;;;;0.40;0.40;;;;;;;-2.94;100.00;101258.16;4953681;28;20454;-73
2023/03/02 05:48:27;;;;;;;0.00;0.00;;;;;;;-2.89;100.00;101255.72;4953817;28;20466;-75
2023/03/02 05:50:52;;;;;;;0.00;0.00;;;;;;;-2.85;100.00;101258.81;4954108;28;20540;-72
2023/03/02 05:53:18;;;;;;;1.10;1.10;;;;;;;-2.88;100.00;101260.03;4953674;28;21018;-73
2023/03/02 05:55:43;;;;;;;0.00;0.00;;;;;;;-2.82;100.00;101256.53;4953385;28;20397;-72
2023/03/02 05:58:13;;;;;;;0.27;0.27;;;;;;;-2.80;100.00;101259.00;4953652;28;20225;-73
2023/03/02 06:00:39;;;;;;;1.43;1.43;;;;;;;-2.81;100.00;101263.53;4953694;28;20202;-75
2023/03/02 06:03:04;;;;;;;0.97;0.97;;;;;;;-2.95;100.00;101259.19;4953463;28;20426;-72
2023/03/02 06:05:30;;;;;;;2.30;2.17;;;;;;;-2.98;100.00;101267.63;4953484;28;20422;-72
2023/03/02 06:07:55;;;;;;;6.77;5.13;;;;;;;-3.01;100.00;101279.53;4953610;28;20187;-73
2023/03/02 06:10:20;;;;;;;1.70;1.60;;;;;;;-2.98;100.00;101277.50;4952084;29;20546;-71
2023/03/02 06:12:46;;;;;;;0.20;0.20;;;;;;;-2.83;100.00;101278.13;4953447;28;20705;-79
2023/03/02 06:15:11;;;;;;;0.00;0.00;;;;;;;-2.75;100.00;101280.59;4952235;29;20194;-73
2023/03/02 06:17:36;;;;;;;1.20;1.20;;;;;;;-2.76;100.00;101281.63;4953455;28;20206;-78
2023/03/02 06:20:09;;;;;;;0.70;0.70;;;;;;;-2.80;100.00;101285.75;4953508;28;20648;-72
2023/03/02 06:22:45;;;;;;;3.73;3.60;;;;;;;-2.89;100.00;101281.59;4951941;28;20189;-72
2023/03/02 06:25:16;;;;;;;2.03;1.70;;;;;;;-2.86;100.00;101292.75;4953222;28;20421;-71
2023/03/02 06:27:42;;;;;;;0.80;0.63;;;;;;;-2.84;100.00;101290.69;4953023;28;20457;-72
2023/03/02 06:30:10;;;;;;;0.00;0.00;;;;;;;-2.82;100.00;101290.47;4953045;28;20477;-72
2023/03/02 06:32:35;;;;;;;4.63;1.17;;;;;;;-2.82;100.00;101293.16;4952978;28;20198;-77
2023/03/02 06:35:02;;;;;;;2.40;1.23;;;;;;;-2.78;100.00;101292.53;4952746;28;20440;-72
2023/03/02 06:37:28;;;;;;;0.83;0.83;;;;;;;-2.76;100.00;101286.97;4952607;28;20237;-71
2023/03/02 06:39:55;;;;;;;0.00;0.00;;;;;;;-2.71;100.00;101292.56;4952919;28;20458;-72
2023/03/02 06:42:20;;;;;;;1.33;1.33;;;;;;;-2.70;100.00;101291.53;4951217;28;20537;-73
2023/03/02 06:44:48;;;;;;;0.10;0.10;;;;;;;-2.64;100.00;101290.72;4952588;28;20513;-79
2023/03/02 06:47:13;;;;;;;13.70;4.73;;;;;;;-2.70;100.00;101289.69;4952759;28;20184;-73
2023/03/02 06:49:39;;;;;;;3.83;2.43;;;;;;;-2.70;100.00;101294.22;4952639;28;20470;-73
2023/03/02 06:52:06;;;;;;;1.50;1.40;;;;;;;-2.70;100.00;101288.88;4952658;28;20178;-76
2023/03/02 06:54:31;;;;;;;16.23;7.67;;;;;;;-2.74;100.00;101292.97;4951194;28;20273;-74
2023/03/02 06:56:57;;;;;;;3.47;3.17;;;;;;;-2.76;100.00;101290.47;4952589;28;20513;-78
2023/03/02 06:59:22;;;;;;;3.60;3.30;;;;;;;-2.76;100.00;101286.97;4952682;28;20599;-73
2023/03/02 07:01:49;;;;;;;1.70;1.07;;;;;;;-2.72;100.00;101280.22;4953180;28;20188;-78
2023/03/02 07:04:15;;;;;;;6.77;2.27;;;;;;;-2.68;100.00;101278.78;4952686;28;20174;-73
2023/03/02 07:06:40;;;;;;;8.63;4.00;;;;;;;-2.65;100.00;101278.38;4956381;28;21035;-71
2023/03/02 07:09:05;;;;;;;2.43;1.90;;;;;;;-2.60;100.00;101278.59;4971714;28;20406;-73
2023/03/02 07:11:30;;;;;;;2.37;2.23;;;;;;;-2.52;100.00;101273.03;4971833;28;20179;-76
2023/03/02 07:13:59;;;;;;;18.17;6.83;;;;;;;-2.54;100.00;101268.94;4972071;28;20166;-75
2023/03/02 07:16:24;;;;;;;6.20;5.70;;;;;;;-2.59;100.00;101261.53;4970456;28;20580;-74
2023/03/02 07:18:49;;;;;;;6.10;5.50;;;;;;;-2.50;100.00;101262.94;4971823;28;21021;-80
2023/03/02 07:21:15;;;;;;;5.53;4.87;;;;;;;-2.51;100.00;101257.81;4971736;28;20178;-75
2023/03/02 07:23:40;;;;;;;8.33;7.07;;;;;;;-2.52;100.00;101259.66;4971622;28;20189;-75
2023/03/02 07:26:07;;;;;;;0.23;0.23;;;;;;;-2.49;100.00;101253.91;4971378;28;20169;-72
2023/03/02 07:28:33;;;;;;;2.17;1.27;;;;;;;-2.45;100.00;101252.47;4956999;28;20225;-70
2023/03/02 07:30:58;;;;;;;6.60;6.10;;;;;;;-2.40;100.00;101250.00;4952292;28;20922;-73
2023/03/02 07:33:23;;;;;;;3.00;2.80;;;;;;;-2.44;100.00;101243.41;4952243;28;20167;-74
2023/03/02 07:35:49;;;;;;;0.10;0.10;;;;;;;-2.42;100.00;101236.00;4951897;28;20187;-72
2023/03/02 07:38:14;;;;;;;0.00;0.00;;;;;;;-2.35;100.00;101229.81;4952308;28;20197;-73
2023/03/02 07:40:40;;;;;;;3.90;3.10;;;;;;;-2.33;100.00;101225.06;4952389;28;20361;-72
2023/03/02 07:43:06;;;;;;;0.83;0.63;;;;;;;-2.29;100.00;101227.16;4952534;28;20510;-73
2023/03/02 07:45:31;;;;;;;0.47;0.40;;;;;;;-2.23;100.00;101223.63;4952135;28;20429;-71
2023/03/02 07:47:56;;;;;;;0.57;0.57;;;;;;;-2.23;100.00;101214.78;4952041;28;20545;-73
2023/03/02 07:50:22;;;;;;;8.07;1.90;;;;;;;-2.31;100.00;101215.00;4952180;28;20643;-72
2023/03/02 07:52:47;;;;;;;1.33;1.33;;;;;;;-2.23;100.00;101218.28;4952030;28;20662;-72
2023/03/02 07:55:12;;;;;;;3.40;3.07;;;;;;;-2.26;100.00;101218.69;4952098;28;20171;-77
2023/03/02 07:57:37;;;;;;;3.23;3.03;;;;;;;-2.23;100.00;101206.75;4954395;28;20307;-72
2023/03/02 08:00:04;;;;;;;4.13;2.33;;;;;;;-2.23;100.00;101206.75;4955807;28;20258;-72
2023/03/02 08:02:29;;;;;;;0.10;0.10;;;;;;;-2.17;100.00;101203.22;4955704;28;20249;-77
2023/03/02 08:04:55;;;;;;;0.83;0.83;;;;;;;-2.06;100.00;101197.25;4955892;28;20522;-72
2023/03/02 08:07:20;;;;;;;0.10;0.10;;;;;;;-2.04;100.00;101203.22;4955512;28;20657;-72
2023/03/02 08:09:45;;;;;;;0.03;0.03;;;;;;;-1.96;100.00;101203.00;4955680;28;20564;-72
2023/03/02 08:12:11;;;;;;;0.00;0.00;;;;;;;-1.90;100.00;101199.47;4955547;28;20529;-72
2023/03/02 08:14:37;;;;;;;5.50;2.47;;;;;;;-2.06;100.00;101207.94;4955404;28;20170;-76
2023/03/02 08:17:04;;;;;;;7.57;6.70;;;;;;;-2.00;100.00;101207.13;4955391;28;20175;-72
2023/03/02 08:19:30;;;;;;;0.83;0.83;;;;;;;-2.02;100.00;101200.34;4955335;28;20426;-81
2023/03/02 08:21:55;;;;;;;5.50;4.77;;;;;;;-2.12;100.00;101200.78;4957477;28;20429;-75
2023/03/02 08:24:20;;;;;;;4.40;3.73;;;;;;;-2.05;100.00;101212.28;4974780;28;20190;-71
2023/03/02 08:26:46;;;;;;;4.77;3.33;;;;;;;-2.06;100.00;101212.47;4974468;28;20169;-73
2023/03/02 08:29:11;;;;;;;4.07;3.77;;;;;;;-2.15;100.00;101198.53;4974602;28;20202;-82
2023/03/02 08:31:37;;;;;;;1.60;1.50;;;;;;;-2.09;100.00;101195.00;4975534;28;20174;-77
2023/03/02 08:34:02;;;;;;;2.63;2.43;;;;;;;-1.97;100.00;101205.88;4973170;28;20169;-83
2023/03/02 08:36:27;;;;;;;0.40;0.40;;;;;;;-2.02;100.00;101206.53;4974149;28;20661;-80
2023/03/02 08:38:53;;;;;;;0.20;0.20;;;;;;;-1.96;100.00;101199.50;4974345;28;20669;-78
2023/03/02 08:41:20;;;;;;;9.70;4.43;;;;;;;-1.97;100.00;101203.22;4974250;28;20167;-79
2023/03/02 08:43:46;;;;;;;5.07;4.73;;;;;;;-1.96;100.00;101196.81;4974354;28;20185;-77
2023/03/02 08:46:15;;;;;;;0.00;0.00;;;;;;;-1.87;100.00;101196.38;4975310;28;20421;-80
2023/03/02 08:48:40;;;;;;;1.67;1.47;;;;;;;-1.88;100.00;101207.28;4974449;28;20293;-77
2023/03/02 08:51:13;;;;;;;0.10;0.10;;;;;;;-1.83;100.00;101202.13;4959741;28;21001;-76
2023/03/02 08:53:40;;;;;;;1.60;1.50;;;;;;;-1.84;100.00;101201.31;4954497;28;20183;-77
2023/03/02 08:56:23;;;;;;;2.60;2.50;;;;;;;-1.88;100.00;101199.25;4954482;28;20422;-78
2023/03/02 08:58:49;;;;;;;2.47;2.33;;;;;;;-1.90;100.00;101198.66;4954476;28;20429;-78
2023/03/02 09:01:17;;;;;;;0.03;0.03;;;;;;;-1.81;100.00;101189.34;4954531;28;20910;-78
2023/03/02 09:03:43;;;;;;;5.77;3.13;;;;;;;-1.85;100.00;101182.78;4954680;28;20446;-75
2023/03/02 09:06:09;;;;;;;0.40;0.40;;;;;;;-1.82;100.00;101177.00;4953794;28;20785;-77
2023/03/02 09:08:34;;;;;;;3.17;2.87;;;;;;;-1.82;100.00;101188.53;4954502;28;20253;-72
2023/03/02 09:10:59;;;;;;;0.77;0.77;;;;;;;-1.74;100.00;101183.97;4954371;28;20183;-74
2023/03/02 09:13:25;;;;;;;0.07;0.07;;;;;;;-1.68;100.00;101191.16;4954257;28;20179;-74
2023/03/02 09:15:50;;;;;;;0.27;0.23;;;;;;;-1.62;100.00;101184.94;4954446;28;20189;-79
2023/03/02 09:18:15;;;;;;;1.83;1.73;;;;;;;-1.63;100.00;101189.47;4954191;28;20241;-79
2023/03/02 09:20:41;;;;;;;1.67;1.23;;;;;;;-1.63;100.00;101185.97;4954046;28;20543;-80
2023/03/02 09:23:06;;;;;;;3.57;3.37;;;;;;;-1.57;100.00;101190.50;4954177;28;20185;-77
2023/03/02 09:25:31;;;;;;;2.40;1.73;;;;;;;-1.59;100.00;101176.47;4954224;28;20518;-79
2023/03/02 09:27:56;;;;;;;8.70;2.67;;;;;;;-1.50;100.00;101176.03;4953760;28;20269;-71
2023/03/02 09:30:22;;;;;;;2.63;2.53;;;;;;;-1.46;100.00;101180.94;4953847;28;20610;-68
2023/03/02 09:32:47;;;;;;;0.63;0.63;;;;;;;-1.40;100.00;101182.78;4953806;28;20701;-68
2023/03/02 09:35:13;;;;;;;1.90;1.80;;;;;;;-1.41;100.00;101183.84;4953926;28;20190;-71
2023/03/02 09:37:38;;;;;;;1.40;1.40;;;;;;;-1.33;100.00;101181.72;4953854;28;20912;-73
2023/03/02 09:40:14;;;;;;;0.87;0.87;;;;;;;-1.38;100.00;101186.91;4953824;28;20198;-72
2023/03/02 09:42:58;;;;;;;0.83;0.83;;;;;;;-1.32;100.00;101187.88;4953722;28;20166;-71
2023/03/02 09:45:34;;;;;;;13.70;6.03;;;;;;;-1.44;100.00;101190.44;4953761;28;20623;-72
2023/03/02 09:48:08;;;;;;;3.73;0.97;;;;;;;-1.32;100.00;101185.22;4953167;28;20422;-74
2023/03/02 09:50:36;;;;;;;0.30;0.30;;;;;;;-1.44;100.00;101181.59;4953560;28;20415;-75
2023/03/02 09:56:11;;;;;;;20.73;15.00;;;;;;;-1.16;100.00;101189.25;5134908;23;20499;-85
2023/03/02 09:58:39;;;;;;;6.40;4.03;;;;;;;-1.25;100.00;101191.38;4961175;28;21363;-78
2023/03/02 10:01:17;;;;;;;13.03;2.03;;;;;;;-1.31;100.00;101193.03;4964015;28;20435;-80
2023/03/02 10:03:53;;;;;;;1.47;1.47;;;;;;;-1.25;100.00;101196.72;4956101;28;20205;-82
2023/03/02 10:06:18;;;;;;;9.23;6.40;;;;;;;-1.32;100.00;101191.38;4957152;28;20460;-73
2023/03/02 10:08:44;;;;;;;27.70;9.53;;;;;;;-1.43;100.00;101180.56;5146912;23;20577;-79
2023/03/02 10:11:34;;;;;;;0.20;0.20;;;;;;;-1.39;100.00;101187.94;4964152;28;20182;-77
2023/03/02 10:14:18;;;;;;;0.77;0.77;;;;;;;-1.34;100.00;101189.97;4963651;28;20186;-76
2023/03/02 10:17:16;;;;;;;0.77;0.77;;;;;;;-1.31;100.00;101189.53;4963096;28;20493;-77
2023/03/02 10:19:52;;;;;;;1.60;1.50;;;;;;;-1.20;100.00;101178.94;4959368;28;20194;-74
2023/03/02 10:22:57;;;;;;;2.80;2.60;;;;;;;-1.13;100.00;101180.78;4960919;28;20584;-74
2023/03/02 10:25:36;;;;;;;2.00;1.90;;;;;;;-1.16;100.00;101173.97;4913601;29;20951;-73
2023/03/02 10:28:18;;;;;;;2.40;2.33;;;;;;;-1.22;100.00;101181.03;4965402;28;20649;-74
2023/03/02 10:30:45;;;;;;;0.90;0.37;;;;;;;-1.23;100.00;101178.56;4961255;28;20435;-71
2023/03/02 10:33:15;;;;;;;0.10;0.10;;;;;;;-1.15;100.00;101185.53;4961226;28;20654;-74
2023/03/02 10:35:50;;;;;;;0.00;0.00;;;;;;;-0.99;100.00;101180.47;4968470;28;20216;-72
2023/03/02 10:38:18;;;;;;;3.83;2.30;;;;;;;-0.95;100.00;101183.53;4961142;28;20189;-69
2023/03/02 10:40:49;;;;;;;2.27;2.17;;;;;;;-1.11;100.00;101186.75;4959887;28;20175;-69
2023/03/02 10:43:24;;;;;;;0.00;0.00;;;;;;;-0.96;100.00;101189.94;4961105;28;20196;-74
2023/03/02 10:46:01;;;;;;;2.77;2.57;;;;;;;-0.82;100.00;101188.81;4961330;28;20777;-70
2023/03/02 10:48:27;;;;;;;0.57;0.57;;;;;;;-0.78;100.00;101198.06;4961126;28;20206;-73
2023/03/02 10:50:55;;;;;;;3.10;3.00;;;;;;;-0.71;100.00;101185.44;4964982;28;20547;-73
2023/03/02 10:53:20;;;;;;;2.20;2.10;;;;;;;-0.96;100.00;101193.44;4960876;28;20660;-71
2023/03/02 10:55:48;;;;;;;1.07;1.07;;;;;;;-0.96;100.00;101188.09;4960173;28;20426;-74
2023/03/02 10:58:24;;;;;;;0.00;0.00;;;;;;;-0.77;100.00;101188.97;4959053;28;20174;-74
2023/03/02 11:01:00;;;;;;;7.03;6.33;;;;;;;-0.90;100.00;101189.06;4960437;28;20272;-74
2023/03/02 11:03:27;;;;;;;1.63;1.63;;;;;;;-0.85;100.00;101189.25;4963697;28;20289;-74
2023/03/02 11:05:53;;;;;;;0.27;0.27;;;;;;;-0.73;100.00;101190.16;4962827;28;20834;-72
2023/03/02 11:08:21;;;;;;;0.00;0.00;;;;;;;-0.53;100.00;101186.53;4960153;28;20212;-74
2023/03/02 11:10:58;;;;;;;0.30;0.30;;;;;;;-0.53;100.00;101186.53;4959944;28;20198;-74
2023/03/02 11:13:27;;;;;;;0.00;0.00;;;;;;;-0.41;100.00;101187.44;4960202;28;20206;-74
2023/03/02 11:15:59;;;;;;;8.33;7.27;;;;;;;-0.56;100.00;101186.97;4960596;28;20277;-74
2023/03/02 11:18:38;;;;;;;9.13;2.43;;;;;;;-0.64;100.00;101204.97;4963397;28;20245;-74
2023/03/02 11:21:13;;;;;;;0.00;0.00;;;;;;;-0.41;100.00;101204.38;4963413;28;20201;-74
2023/03/02 11:23:56;;;;;;;0.20;0.20;;;;;;;-0.44;100.00;101199.44;4964560;28;20193;-74
2023/03/02 11:26:32;;;;;;;0.27;0.27;;;;;;;-0.29;100.00;101201.75;4960156;28;20190;-74